Time;durP1;ratioP1;P1;durP2;ratioP2;P2;SDS_P1;SDS_P2;PMS_P1;PMS_P2;Temp;Humidity;BMP_temperature;BMP_pressure;BME280_temperature;BME280_humidity;BME280_pressure;Samples;Min_cycle;Max_cycle;Signal;HPM_P1;HPM_P2
2023/06/16 07:01:17;;;;;;;0.95;0.85;;;28.30;99.90;27.90;101823.00;;;;6129196;22;1416200;-74
2023/06/16 07:03:43;;;;;;;0.10;0.10;;;26.60;99.90;30.40;101832.00;;;;6161003;23;20167;-74
2023/06/16 07:06:10;;;;;;;0.10;0.10;;;26.80;99.90;33.50;101806.00;;;;6161461;23;20159;-75
2023/06/16 07:08:39;;;;;;;0.55;0.45;;;28.50;99.90;35.70;101821.00;;;;6161120;23;20147;-75
2023/06/16 07:11:05;;;;;;;0.10;0.10;;;30.50;99.60;35.50;101855.00;;;;6136725;23;20475;-75
2023/06/16 07:13:31;;;;;;;1.00;1.00;;;31.30;97.70;30.70;101865.00;;;;6160722;23;20258;-74
2023/06/16 07:15:57;;;;;;;0.52;0.52;;;29.80;96.40;33.10;101865.00;;;;6161339;23;20170;-74
2023/06/16 07:18:23;;;;;;;0.75;0.55;;;29.50;97.40;33.90;101865.00;;;;6187431;23;20248;-74
2023/06/16 07:20:49;;;;;;;0.10;0.10;;;29.70;95.80;33.40;101862.00;;;;6161675;23;20250;-75
2023/06/16 07:23:20;;;;;;;1.95;1.35;;;30.20;95.20;30.30;101845.00;;;;6187047;23;20174;-75
2023/06/16 07:25:46;;;;;;;2.20;0.82;;;29.30;94.60;31.60;101870.00;;;;6186947;23;20147;-75
2023/06/16 07:28:15;;;;;;;0.10;0.10;;;28.70;95.40;34.50;101877.00;;;;6187482;23;20174;-74
2023/06/16 07:30:40;;;;;;;0.30;0.30;;;29.60;95.30;36.20;101839.00;;;;6186828;23;20159;-75
2023/06/16 07:33:07;;;;;;;0.10;0.10;;;31.20;94.30;36.00;101870.00;;;;6187501;23;20485;-75
2023/06/16 07:35:39;;;;;;;1.05;0.93;;;31.70;93.50;32.60;101902.00;;;;6187264;23;20615;-74
2023/06/16 07:38:05;;;;;;;2.00;0.70;;;31.10;92.30;34.20;101896.00;;;;6160798;23;20556;-75
2023/06/16 07:40:31;;;;;;;0.10;0.10;;;30.20;93.40;33.10;101907.00;;;;6160815;23;20174;-75
2023/06/16 07:43:00;;;;;;;0.52;0.47;;;29.90;93.30;34.40;101906.00;;;;6161022;23;20467;-75
2023/06/16 07:45:26;;;;;;;0.10;0.10;;;30.40;93.40;33.90;101882.00;;;;6136833;23;20155;-74
2023/06/16 07:47:52;;;;;;;0.10;0.10;;;30.40;92.40;34.10;101897.00;;;;6160457;23;20140;-75
2023/06/16 07:50:20;;;;;;;0.20;0.20;;;30.60;92.50;35.40;101878.00;;;;6160542;23;20159;-75
2023/06/16 07:52:49;;;;;;;0.20;0.20;;;31.30;91.90;36.10;101888.00;;;;6186353;23;20222;-75
2023/06/16 07:55:15;;;;;;;0.15;0.15;;;31.80;92.10;35.20;101839.00;;;;6161119;23;20580;-74
2023/06/16 07:57:50;;;;;;;0.20;0.20;;;31.60;91.10;35.30;101904.00;;;;6160858;23;20471;-75
2023/06/16 08:00:18;;;;;;;0.30;0.30;;;31.50;91.00;36.50;101882.00;;;;6161376;23;20174;-74
2023/06/16 08:02:58;;;;;;;0.10;0.10;;;32.60;90.30;38.40;101861.00;;;;6136362;23;20202;-76
2023/06/16 08:05:30;;;;;;;0.10;0.10;;;33.40;89.70;37.80;101857.00;;;;6160050;23;20162;-75
2023/06/16 08:07:56;;;;;;;0.73;0.73;;;33.50;88.30;38.40;101862.00;;;;6136052;23;20249;-75
2023/06/16 08:10:25;;;;;;;0.10;0.10;;;33.90;84.70;36.80;101872.00;;;;6186543;23;20139;-74
2023/06/16 08:12:54;;;;;;;1.70;0.20;;;33.30;85.30;36.40;101870.00;;;;6186605;23;20564;-74
2023/06/16 08:15:23;;;;;;;0.50;0.30;;;33.60;84.90;34.80;101883.00;;;;6136034;23;20155;-75
2023/06/16 08:17:51;;;;;;;0.10;0.10;;;33.20;84.20;37.30;101883.00;;;;6186947;23;20190;-74
2023/06/16 08:20:20;;;;;;;0.10;0.10;;;33.10;85.60;37.10;101882.00;;;;6160929;23;20140;-75
2023/06/16 08:22:46;;;;;;;0.35;0.35;;;33.30;83.00;33.70;101886.00;;;;6186686;23;20171;-74
2023/06/16 08:25:12;;;;;;;0.10;0.10;;;32.20;82.20;36.00;101871.00;;;;6135107;23;20162;-75
2023/06/16 08:27:44;;;;;;;0.63;0.57;;;31.90;83.80;34.40;101891.00;;;;6158830;23;20147;-74
2023/06/16 08:30:15;;;;;;;0.45;0.45;;;31.60;82.40;37.40;101872.00;;;;6185987;23;20651;-75
2023/06/16 08:32:41;;;;;;;0.50;0.50;;;32.70;83.00;34.20;101896.00;;;;6186764;23;20155;-74
2023/06/16 08:35:13;;;;;;;2.25;1.38;;;31.90;82.00;36.20;101880.00;;;;6186012;23;20222;-74
2023/06/16 08:37:39;;;;;;;0.38;0.20;;;32.60;81.70;34.60;101885.00;;;;6160561;23;20146;-74
2023/06/16 08:40:08;;;;;;;0.20;0.20;;;31.30;83.80;36.70;101876.00;;;;6186467;23;20141;-74
2023/06/16 08:42:37;;;;;;;0.52;0.52;;;32.50;82.50;35.90;101885.00;;;;6160364;23;20163;-74
2023/06/16 08:45:05;;;;;;;0.13;0.13;;;31.90;84.00;35.80;101870.00;;;;6160524;23;20170;-74
2023/06/16 08:47:42;;;;;;;0.10;0.10;;;32.40;80.00;37.00;101840.00;;;;6159166;23;20648;-75
2023/06/16 08:50:22;;;;;;;0.30;0.30;;;32.70;80.20;38.00;101869.00;;;;6134485;23;20161;-75
2023/06/16 08:52:53;;;;;;;0.20;0.20;;;33.20;79.00;36.80;101874.00;;;;6186710;23;20154;-74
2023/06/16 08:55:20;;;;;;;0.10;0.10;;;33.50;77.40;37.50;101871.00;;;;6159872;23;20633;-75
2023/06/16 08:57:50;;;;;;;0.10;0.10;;;33.70;78.10;36.30;101872.00;;;;6186083;23;20179;-74
2023/06/16 09:00:17;;;;;;;0.45;0.45;;;32.70;77.20;36.60;101826.00;;;;6159781;23;20171;-75
2023/06/16 09:02:56;;;;;;;0.22;0.22;;;33.20;76.70;36.80;101880.00;;;;6134829;23;20171;-74
2023/06/16 09:05:30;;;;;;;0.57;0.57;;;33.30;77.90;37.70;101872.00;;;;6159121;23;20162;-74
2023/06/16 09:08:03;;;;;;;1.25;0.95;;;33.30;76.70;36.70;101834.00;;;;6160251;23;20251;-74
2023/06/16 09:10:34;;;;;;;0.60;0.60;;;33.40;76.00;35.50;101818.00;;;;6134068;23;20644;-74
2023/06/16 09:13:01;;;;;;;0.10;0.10;;;32.00;77.40;36.40;101862.00;;;;6158994;23;20209;-74
2023/06/16 09:15:27;;;;;;;0.10;0.10;;;32.70;76.10;36.60;101873.00;;;;6159456;23;20237;-75
2023/06/16 09:17:56;;;;;;;0.45;0.45;;;32.50;77.50;34.60;101890.00;;;;6134813;23;20154;-74
2023/06/16 09:20:23;;;;;;;0.40;0.40;;;32.60;75.40;37.40;101869.00;;;;6160336;23;20478;-74
2023/06/16 09:23:00;;;;;;;0.10;0.10;;;33.30;74.50;38.20;101870.00;;;;6135206;23;20557;-74
2023/06/16 09:25:28;;;;;;;0.50;0.50;;;33.60;74.40;38.80;101851.00;;;;6160182;23;20584;-75
2023/06/16 09:27:59;;;;;;;0.10;0.10;;;35.00;72.80;37.10;101884.00;;;;6186124;23;20150;-74
2023/06/16 09:30:30;;;;;;;0.10;0.10;;;34.10;72.90;38.00;101865.00;;;;6185914;23;20194;-74
2023/06/16 09:33:00;;;;;;;0.40;0.40;;;34.00;72.70;38.20;101874.00;;;;6134703;23;20212;-74
2023/06/16 09:35:28;;;;;;;0.30;0.30;;;34.20;72.20;36.50;101873.00;;;;6185845;23;20147;-74
2023/06/16 09:37:58;;;;;;;0.52;0.30;;;33.70;71.90;34.60;101869.00;;;;6134979;23;20565;-74
2023/06/16 09:40:30;;;;;;;1.45;1.35;;;32.70;72.90;31.80;101895.00;;;;6159659;23;20229;-74
2023/06/16 09:43:02;;;;;;;0.20;0.20;;;31.00;73.00;34.70;101874.00;;;;6134978;23;20175;-73
2023/06/16 09:45:36;;;;;;;0.22;0.22;;;30.90;74.60;36.80;101862.00;;;;6135739;23;20190;-74
2023/06/16 09:48:10;;;;;;;0.70;0.30;;;32.10;75.20;35.40;101876.00;;;;6159142;23;20241;-74
2023/06/16 09:50:40;;;;;;;0.10;0.10;;;32.40;74.30;37.60;101870.00;;;;6159646;23;20679;-74
2023/06/16 09:53:09;;;;;;;0.77;0.50;;;33.00;72.10;34.20;101865.00;;;;6159484;23;20237;-74
2023/06/16 09:55:41;;;;;;;0.30;0.30;;;32.30;72.70;34.90;101872.00;;;;6159813;23;20194;-74
2023/06/16 09:58:15;;;;;;;0.40;0.40;;;31.60;74.30;35.10;101869.00;;;;6159305;23;20143;-74
2023/06/16 10:00:41;;;;;;;0.20;0.20;;;31.70;73.40;33.80;101863.00;;;;6207400;23;20223;-73
2023/06/16 10:03:09;;;;;;;0.10;0.10;;;30.90;72.30;36.70;101865.00;;;;6188571;23;20197;-74
2023/06/16 10:05:47;;;;;;;0.10;0.10;;;32.20;72.30;36.40;101791.00;;;;6189776;23;20221;-74
2023/06/16 10:08:19;;;;;;;0.77;0.77;;;32.80;71.80;32.90;101879.00;;;;6165875;23;20465;-73
2023/06/16 10:10:52;;;;;;;1.13;0.95;;;31.70;71.40;33.60;101871.00;;;;6165567;23;20540;-74
2023/06/16 10:13:21;;;;;;;0.10;0.10;;;31.80;70.90;36.80;101843.00;;;;6215437;23;20146;-73
2023/06/16 10:15:52;;;;;;;0.57;0.57;;;32.30;71.10;33.30;101874.00;;;;6164360;23;20185;-73
2023/06/16 10:18:25;;;;;;;0.50;0.50;;;31.60;71.60;35.70;101850.00;;;;6188925;23;20674;-73
2023/06/16 10:33:25;;;;;;;0.10;0.10;;;31.70;68.70;36.60;101839.00;;;;5069301;28;21012;-74
2023/06/16 10:36:05;;;;;;;1.75;0.85;;;32.70;68.80;32.20;101854.00;;;;5049145;28;20189;-75
2023/06/16 10:38:36;;;;;;;0.20;0.20;;;31.40;68.20;30.60;101859.00;;;;5048895;28;20186;-74
2023/06/16 10:41:12;;;;;;;0.45;0.45;;;29.10;70.80;32.00;101846.00;;;;5049520;28;20268;-74
2023/06/16 10:43:41;;;;;;;1.88;1.67;;;28.90;72.00;33.80;101836.00;;;;5049037;28;20186;-74
2023/06/16 10:46:21;;;;;;;0.10;0.10;;;30.30;70.60;34.60;101823.00;;;;5048959;28;20189;-75
2023/06/16 10:49:07;;;;;;;0.10;0.10;;;30.80;70.60;37.70;101808.00;;;;5065543;28;20182;-75
2023/06/16 10:51:49;;;;;;;0.10;0.10;;;32.90;70.00;39.80;101800.00;;;;5061562;28;20209;-73
2023/06/16 10:54:33;;;;;;;0.35;0.35;;;34.90;67.60;39.20;101811.00;;;;5042964;28;20189;-74
2023/06/16 10:57:10;;;;;;;0.10;0.10;;;35.70;66.30;36.20;101774.00;;;;5049601;28;20205;-76
2023/06/16 11:00:12;;;;;;;0.57;0.57;;;33.70;67.00;36.00;101823.00;;;;5048806;28;20186;-73
2023/06/16 11:03:05;;;;;;;0.10;0.10;;;33.70;67.20;38.30;101808.00;;;;5036921;28;20214;-74
2023/06/16 11:05:40;;;;;;;0.63;0.63;;;34.20;66.10;40.20;101786.00;;;;5053713;28;20316;-74
2023/06/16 11:08:16;;;;;;;0.20;0.20;;;35.70;64.60;39.40;101802.00;;;;5031971;28;20186;-74
2023/06/16 11:10:50;;;;;;;0.20;0.20;;;35.80;64.80;40.40;101791.00;;;;5048458;28;20178;-74
2023/06/16 11:13:23;;;;;;;0.43;0.40;;;36.10;63.80;38.60;101809.00;;;;5049060;28;20244;-74
2023/06/16 11:15:55;;;;;;;0.80;0.80;;;35.90;61.70;37.50;101792.00;;;;5064945;28;20546;-74
2023/06/16 11:18:33;;;;;;;0.22;0.22;;;35.20;61.60;37.30;101804.00;;;;5036467;28;20183;-74
2023/06/16 11:21:07;;;;;;;0.57;0.57;;;34.30;62.60;35.60;101772.00;;;;5063381;28;20186;-74
2023/06/16 11:23:43;;;;;;;1.52;0.80;;;33.40;62.80;35.20;101815.00;;;;5048389;28;20183;-74
2023/06/16 11:26:19;;;;;;;1.17;1.17;;;32.20;64.30;35.40;101811.00;;;;5048667;28;20554;-73
2023/06/16 11:28:47;;;;;;;1.10;1.10;;;32.00;63.50;36.70;101812.00;;;;5043157;28;20265;-73
2023/06/16 11:31:18;;;;;;;0.82;0.70;;;32.80;62.90;37.40;101820.00;;;;5047847;28;20190;-73
2023/06/16 11:33:47;;;;;;;0.20;0.20;;;33.60;61.60;39.30;101782.00;;;;5048067;28;20204;-73
2023/06/16 11:36:27;;;;;;;0.52;0.52;;;35.10;60.40;36.90;101807.00;;;;5064132;28;20183;-73
2023/06/16 11:39:00;;;;;;;0.65;0.65;;;34.60;60.40;38.60;101786.00;;;;5047966;28;20186;-73
2023/06/16 11:41:30;;;;;;;0.10;0.10;;;35.10;60.60;39.90;101775.00;;;;5063666;28;20232;-73
2023/06/16 11:44:05;;;;;;;0.22;0.20;;;36.10;60.60;40.10;101783.00;;;;5038652;28;20179;-73
2023/06/16 11:46:37;;;;;;;0.10;0.10;;;36.70;59.20;37.40;101803.00;;;;5035060;28;20201;-73
2023/06/16 11:49:06;;;;;;;0.10;0.10;;;35.30;59.90;39.00;101797.00;;;;5018556;28;20193;-73
2023/06/16 11:51:36;;;;;;;0.63;0.63;;;35.20;61.30;40.80;101779.00;;;;5049708;28;20661;-74
2023/06/16 11:54:05;;;;;;;0.47;0.47;;;36.40;59.80;38.90;101784.00;;;;5034761;28;20187;-74
2023/06/16 11:56:35;;;;;;;0.40;0.40;;;36.00;58.40;39.40;101787.00;;;;5033656;28;20563;-73
2023/06/16 11:59:09;;;;;;;0.73;0.73;;;35.50;59.00;38.10;101788.00;;;;5034525;28;20524;-74
2023/06/16 12:01:40;;;;;;;0.10;0.10;;;35.30;57.10;38.00;101795.00;;;;5022504;28;20194;-73
2023/06/16 12:04:10;;;;;;;1.42;1.33;;;34.60;58.20;36.90;101787.00;;;;5017727;28;20187;-73
2023/06/16 12:06:39;;;;;;;0.20;0.20;;;34.00;58.10;35.70;101799.00;;;;5050866;28;20187;-74
2023/06/16 12:09:17;;;;;;;0.30;0.30;;;33.20;58.90;35.80;101743.00;;;;5034303;28;20187;-73
2023/06/16 12:11:46;;;;;;;0.13;0.13;;;32.40;59.10;34.30;101809.00;;;;5044606;28;21237;-73
2023/06/16 12:14:24;;;;;;;0.10;0.10;;;32.00;59.40;34.60;101794.00;;;;5033997;28;20264;-73
2023/06/16 12:16:53;;;;;;;0.47;0.30;;;31.40;60.10;32.10;101795.00;;;;5035166;28;20183;-73
2023/06/16 12:19:21;;;;;;;0.10;0.10;;;30.10;60.70;33.70;101803.00;;;;5040748;28;20193;-73
2023/06/16 12:22:00;;;;;;;0.75;0.75;;;29.80;62.30;35.20;101775.00;;;;5033575;28;20284;-73
2023/06/16 12:24:27;;;;;;;0.38;0.38;;;30.80;61.30;35.80;101766.00;;;;5050766;28;20190;-74
2023/06/16 12:26:59;;;;;;;0.10;0.10;;;31.60;59.70;36.10;101784.00;;;;5033514;28;20191;-74
2023/06/16 12:29:31;;;;;;;0.20;0.20;;;31.60;60.30;33.80;101732.00;;;;5034218;28;20217;-73
2023/06/16 12:32:03;;;;;;;0.25;0.25;;;30.80;59.50;34.60;101784.00;;;;5033353;28;20681;-73
2023/06/16 12:34:38;;;;;;;1.13;0.80;;;30.60;59.70;32.60;101808.00;;;;5050411;28;20202;-73
2023/06/16 12:37:18;;;;;;;0.20;0.20;;;30.30;60.90;34.40;101795.00;;;;5049561;28;20244;-73
2023/06/16 12:40:00;;;;;;;0.10;0.10;;;30.30;61.80;35.30;101787.00;;;;5034778;28;20248;-73
2023/06/16 12:42:38;;;;;;;0.30;0.30;;;30.90;62.80;33.80;101800.00;;;;5016732;28;20543;-74
2023/06/16 12:45:07;;;;;;;0.10;0.10;;;30.70;60.10;34.10;101766.00;;;;5033836;28;20627;-73
2023/06/16 12:47:40;;;;;;;0.20;0.20;;;30.30;62.60;34.00;101788.00;;;;5033446;28;20195;-73
2023/06/16 12:50:07;;;;;;;0.10;0.10;;;30.00;61.40;34.40;101790.00;;;;5034665;28;20178;-75
2023/06/16 12:52:33;;;;;;;0.25;0.25;;;30.30;61.90;34.90;101775.00;;;;5016804;28;20217;-75
2023/06/16 12:55:03;;;;;;;0.17;0.17;;;30.40;62.90;33.50;101792.00;;;;5032603;28;20579;-75
2023/06/16 12:57:32;;;;;;;0.20;0.20;;;30.30;62.10;33.50;101771.00;;;;5049250;28;20225;-75
2023/06/16 12:59:58;;;;;;;1.33;0.65;;;29.80;63.30;33.50;101784.00;;;;5033248;28;20198;-73
2023/06/16 13:02:24;;;;;;;0.68;0.68;;;30.00;62.70;33.80;101769.00;;;;5034090;28;20186;-73
2023/06/16 13:04:50;;;;;;;0.85;0.85;;;29.70;63.50;32.10;101779.00;;;;5033097;28;20187;-75
2023/06/16 13:07:23;;;;;;;0.47;0.47;;;29.20;62.80;32.60;101762.00;;;;5049508;28;20703;-75
2023/06/16 13:09:55;;;;;;;0.20;0.20;;;28.90;63.20;34.20;101756.00;;;;5016978;28;20194;-75
2023/06/16 13:12:23;;;;;;;0.10;0.10;;;29.60;64.60;34.20;101755.00;;;;5034100;28;20264;-73
2023/06/16 13:14:49;;;;;;;0.40;0.40;;;30.10;62.40;32.30;101773.00;;;;5034259;28;20201;-74
2023/06/16 13:17:18;;;;;;;0.20;0.20;;;29.60;62.30;32.30;101774.00;;;;5033585;28;20659;-75
2023/06/16 13:19:49;;;;;;;2.25;1.58;;;29.00;63.60;31.20;101775.00;;;;5032688;28;20225;-75
2023/06/16 13:22:18;;;;;;;0.73;0.73;;;28.80;63.60;33.00;101762.00;;;;5033316;28;20233;-75
2023/06/16 13:24:51;;;;;;;0.20;0.20;;;29.00;64.20;33.80;101755.00;;;;5033833;28;20187;-75
2023/06/16 13:27:18;;;;;;;1.27;1.17;;;29.50;64.00;34.20;101765.00;;;;5048631;28;20209;-75
2023/06/16 13:29:47;;;;;;;0.50;0.50;;;29.90;62.50;33.50;101743.00;;;;5047707;28;20587;-75
2023/06/16 13:32:13;;;;;;;0.30;0.30;;;30.00;63.00;34.20;101738.00;;;;5032381;28;20222;-75
2023/06/16 13:34:42;;;;;;;0.32;0.32;;;30.20;62.40;34.10;101749.00;;;;5033637;28;20179;-75
2023/06/16 13:37:11;;;;;;;1.45;1.20;;;30.40;62.70;34.00;101751.00;;;;5033646;28;20202;-75
2023/06/16 13:39:39;;;;;;;1.02;0.75;;;30.10;63.10;34.10;101747.00;;;;5033830;28;20210;-74
2023/06/16 13:42:08;;;;;;;1.40;1.30;;;30.40;62.00;32.40;101752.00;;;;5016027;28;20248;-75
2023/06/16 13:44:37;;;;;;;0.52;0.52;;;29.70;62.10;33.80;101736.00;;;;5049065;28;20187;-75
2023/06/16 13:47:11;;;;;;;0.15;0.15;;;29.70;62.70;33.70;101725.00;;;;5015807;28;20549;-74
2023/06/16 13:49:39;;;;;;;0.20;0.20;;;29.90;63.10;34.50;101735.00;;;;5016082;28;20273;-74
2023/06/16 13:52:12;;;;;;;1.17;0.47;;;30.10;63.30;33.10;101734.00;;;;5015888;28;20233;-75
2023/06/16 13:54:38;;;;;;;0.45;0.45;;;30.00;62.80;34.00;101682.00;;;;5015983;28;20591;-74
2023/06/16 13:57:04;;;;;;;0.20;0.20;;;30.00;64.00;34.30;101719.00;;;;5032412;28;20198;-75
2023/06/16 13:59:33;;;;;;;1.85;0.90;;;30.10;63.50;34.30;101731.00;;;;5030839;28;20210;-74
2023/06/16 14:02:05;;;;;;;0.50;0.50;;;30.40;62.20;33.60;101719.00;;;;5044136;28;20562;-75
2023/06/16 14:04:31;;;;;;;0.68;0.68;;;30.10;61.50;33.20;101731.00;;;;5031840;28;20202;-74
2023/06/16 14:07:02;;;;;;;0.40;0.40;;;29.80;62.40;33.10;101739.00;;;;5031994;28;20218;-75
2023/06/16 14:09:34;;;;;;;0.10;0.10;;;29.60;62.70;32.20;101730.00;;;;5031819;28;20187;-74
2023/06/16 14:12:04;;;;;;;2.17;0.38;;;29.50;62.20;33.60;101717.00;;;;5048678;28;20221;-74
2023/06/16 14:14:36;;;;;;;1.80;0.75;;;29.60;63.80;34.90;101670.00;;;;5031810;28;20693;-75
2023/06/16 14:17:03;;;;;;;0.10;0.10;;;30.30;63.60;35.10;101712.00;;;;5032030;28;20208;-74
2023/06/16 14:19:37;;;;;;;0.10;0.10;;;30.80;63.00;35.60;101706.00;;;;5048295;28;20768;-74
2023/06/16 14:22:09;;;;;;;0.20;0.20;;;31.00;62.20;35.20;101707.00;;;;5015902;28;20237;-74
2023/06/16 14:24:40;;;;;;;0.22;0.22;;;31.00;62.00;35.40;101713.00;;;;5031165;28;20245;-75
2023/06/16 14:27:06;;;;;;;0.17;0.17;;;31.10;62.00;35.00;101710.00;;;;5032738;28;20628;-75
2023/06/16 14:29:37;;;;;;;0.10;0.10;;;31.00;62.30;35.10;101704.00;;;;5031873;28;20194;-75
2023/06/16 14:32:09;;;;;;;0.25;0.25;;;30.90;61.40;35.10;101697.00;;;;5046065;28;20743;-74
2023/06/16 14:34:35;;;;;;;0.10;0.10;;;31.10;60.90;33.50;101699.00;;;;5032048;28;20266;-74
2023/06/16 14:37:04;;;;;;;0.20;0.20;;;30.40;61.10;33.80;101701.00;;;;5043804;28;20316;-74
2023/06/16 14:39:35;;;;;;;0.30;0.30;;;30.20;60.90;34.10;101703.00;;;;5033126;28;20182;-74
2023/06/16 14:42:07;;;;;;;0.17;0.17;;;30.20;61.10;34.20;101686.00;;;;5031781;28;20191;-75
2023/06/16 14:44:33;;;;;;;0.10;0.10;;;30.20;60.70;34.30;101704.00;;;;5041169;28;20348;-75
2023/06/16 14:47:02;;;;;;;0.10;0.10;;;30.30;61.20;34.90;101697.00;;;;5048047;28;20232;-75
2023/06/16 14:49:59;;;;;;;0.38;0.38;;;30.50;61.00;34.00;101707.00;;;;5031562;28;20183;-74
2023/06/16 14:52:34;;;;;;;0.20;0.20;;;30.50;60.80;32.40;101713.00;;;;5031268;28;20226;-74
2023/06/16 14:55:07;;;;;;;1.13;0.55;;;29.70;60.90;32.60;101709.00;;;;5033074;28;20186;-74
2023/06/16 14:57:56;;;;;;;0.22;0.22;;;29.40;61.30;32.50;101714.00;;;;5047950;28;20206;-75
2023/06/16 15:00:51;;;;;;;0.60;0.60;;;29.20;61.70;32.90;101706.00;;;;5031524;28;20680;-74
2023/06/16 15:03:37;;;;;;;0.50;0.50;;;29.10;61.20;31.60;101713.00;;;;5031562;28;20645;-74
2023/06/16 15:06:33;;;;;;;0.40;0.25;;;28.90;62.30;31.80;101706.00;;;;5014277;28;20282;-74
2023/06/16 15:09:31;;;;;;;1.37;1.27;;;28.70;62.60;32.40;101706.00;;;;5031653;28;20491;-75
2023/06/16 15:12:16;;;;;;;0.30;0.30;;;28.70;61.90;33.10;101653.00;;;;5047649;28;20253;-74
2023/06/16 15:15:07;;;;;;;0.20;0.20;;;28.90;62.80;33.20;101689.00;;;;5044365;28;20179;-74
2023/06/16 15:17:58;;;;;;;0.20;0.20;;;29.10;61.90;33.30;101693.00;;;;5014167;28;20195;-75
2023/06/16 15:20:40;;;;;;;0.10;0.10;;;29.40;62.30;33.40;101679.00;;;;5046984;28;20186;-75
2023/06/16 15:23:33;;;;;;;0.52;0.52;;;29.40;62.10;31.70;101640.00;;;;5034750;28;20194;-75
2023/06/16 15:26:21;;;;;;;0.40;0.40;;;29.00;61.40;31.80;101684.00;;;;5034839;28;20191;-74
2023/06/16 15:29:28;;;;;;;0.10;0.10;;;28.70;61.80;32.60;101691.00;;;;5035248;28;20277;-74
2023/06/16 15:32:23;;;;;;;0.10;0.10;;;28.70;61.70;32.00;101693.00;;;;5041658;28;20237;-74
2023/06/16 15:35:14;;;;;;;0.35;0.35;;;28.60;62.20;32.30;101690.00;;;;5030202;28;20687;-74
2023/06/16 15:38:06;;;;;;;1.42;1.20;;;28.70;61.30;30.90;101701.00;;;;5047971;28;20672;-74
2023/06/16 15:40:56;;;;;;;0.70;0.70;;;28.40;61.70;31.30;101697.00;;;;5050740;28;20645;-74
2023/06/16 15:43:52;;;;;;;0.10;0.10;;;28.10;61.70;32.80;101682.00;;;;5046152;28;20205;-74
2023/06/16 15:46:42;;;;;;;5.78;4.35;;;28.60;62.60;30.80;101686.00;;;;5030815;28;20183;-74
2023/06/16 15:49:51;;;;;;;0.40;0.40;;;28.30;61.10;32.40;101687.00;;;;5015906;28;20202;-74
2023/06/16 15:52:31;;;;;;;1.23;0.95;;;28.40;60.80;31.40;101687.00;;;;5031323;28;20625;-74
2023/06/16 15:55:12;;;;;;;0.10;0.10;;;28.50;60.80;32.10;101677.00;;;;5018210;28;20198;-75
2023/06/16 15:57:52;;;;;;;0.30;0.30;;;28.50;60.80;32.40;101661.00;;;;5041070;28;20248;-74
2023/06/16 16:00:51;;;;;;;0.28;0.28;;;28.70;61.20;32.40;101676.00;;;;5034080;28;20664;-74
2023/06/16 16:03:45;;;;;;;0.60;0.60;;;28.80;61.10;31.30;101675.00;;;;5034195;28;20198;-75
2023/06/16 16:06:37;;;;;;;0.75;0.75;;;28.60;61.10;32.20;101672.00;;;;5033983;28;20193;-74
2023/06/16 16:09:26;;;;;;;0.88;0.88;;;28.50;60.90;31.70;101623.00;;;;5051379;28;20198;-75
2023/06/16 16:12:18;;;;;;;1.33;0.52;;;28.50;60.70;32.60;101659.00;;;;4993246;28;20215;-74
2023/06/16 16:15:13;;;;;;;0.15;0.15;;;28.70;61.30;32.10;101673.00;;;;4970285;28;20203;-75
2023/06/16 16:17:59;;;;;;;0.25;0.25;;;28.50;62.80;32.00;101671.00;;;;5028152;28;20260;-74
2023/06/16 16:20:39;;;;;;;1.08;1.08;;;28.40;61.40;31.90;101598.00;;;;5009010;28;20195;-75
2023/06/16 16:23:17;;;;;;;1.02;1.02;;;28.40;61.20;30.60;101678.00;;;;5031180;28;20204;-75
2023/06/16 16:26:15;;;;;;;1.05;1.05;;;28.10;61.30;31.30;101673.00;;;;5024676;28;20186;-74
2023/06/16 16:29:05;;;;;;;0.30;0.30;;;28.00;62.60;30.80;101682.00;;;;5033649;28;20593;-75
2023/06/16 16:31:44;;;;;;;0.25;0.25;;;27.90;66.00;30.90;101662.00;;;;5017057;28;20226;-75
2023/06/16 16:34:19;;;;;;;0.73;0.73;;;27.70;66.50;31.30;101668.00;;;;5049129;28;20190;-75
2023/06/16 16:37:03;;;;;;;0.20;0.20;;;27.80;66.40;31.60;101661.00;;;;5033638;28;20190;-75
2023/06/16 16:39:37;;;;;;;0.90;0.63;;;27.90;66.40;31.20;101669.00;;;;5033380;28;20183;-74
2023/06/16 16:42:19;;;;;;;0.60;0.60;;;28.00;66.10;30.80;101672.00;;;;5033586;28;20228;-75
2023/06/16 16:44:56;;;;;;;0.43;0.40;;;27.80;66.90;30.10;101669.00;;;;5050084;28;20187;-75
2023/06/16 16:47:37;;;;;;;0.70;0.32;;;27.40;68.80;31.10;101664.00;;;;5033314;28;20194;-74
2023/06/16 16:50:14;;;;;;;1.02;0.73;;;27.40;69.20;30.60;101667.00;;;;5034530;28;20183;-75
2023/06/16 16:53:06;;;;;;;3.50;0.88;;;27.50;69.10;30.40;101672.00;;;;5048458;28;20695;-75
2023/06/16 16:55:37;;;;;;;1.75;1.52;;;27.40;69.10;30.10;101682.00;;;;5041952;28;20198;-75
2023/06/16 16:58:09;;;;;;;0.43;0.43;;;27.40;69.70;31.00;101670.00;;;;5032106;28;20218;-75
2023/06/16 17:00:41;;;;;;;0.90;0.90;;;27.50;70.90;31.10;101670.00;;;;5033330;28;20183;-75
2023/06/16 17:03:18;;;;;;;0.98;0.95;;;27.60;70.40;30.30;101663.00;;;;5049604;28;20191;-75
2023/06/16 17:05:53;;;;;;;0.10;0.10;;;27.50;70.00;31.50;101665.00;;;;5049188;28;20217;-75
2023/06/16 17:08:31;;;;;;;0.20;0.20;;;27.60;70.10;31.30;101666.00;;;;5034560;28;20265;-75
2023/06/16 17:11:22;;;;;;;1.75;0.80;;;27.70;69.50;30.70;101673.00;;;;5032214;28;20265;-75
2023/06/16 17:13:58;;;;;;;0.45;0.45;;;27.50;69.50;30.30;101661.00;;;;5049200;28;20202;-75
2023/06/16 17:16:38;;;;;;;0.20;0.20;;;27.40;69.80;31.40;101670.00;;;;5046855;28;20202;-75
2023/06/16 17:19:33;;;;;;;1.10;1.02;;;27.40;69.40;30.60;101615.00;;;;5035380;28;20251;-75
2023/06/16 17:22:11;;;;;;;0.10;0.10;;;27.30;70.30;30.90;101674.00;;;;5041601;28;20356;-74
2023/06/16 17:25:00;;;;;;;0.45;0.45;;;27.40;71.10;31.50;101653.00;;;;5033265;28;20183;-74
2023/06/16 17:27:49;;;;;;;0.70;0.70;;;27.60;70.80;30.20;101653.00;;;;5012941;28;20195;-75
2023/06/16 17:30:38;;;;;;;0.50;0.50;;;27.20;70.90;30.60;101672.00;;;;5019615;28;20715;-75
2023/06/16 17:33:27;;;;;;;5.43;1.30;;;27.20;70.70;29.70;101679.00;;;;5048467;28;20214;-75
2023/06/16 17:36:23;;;;;;;0.40;0.40;;;27.00;71.40;30.40;101665.00;;;;5014611;28;20286;-75
2023/06/16 17:39:00;;;;;;;0.85;0.85;;;26.90;71.80;30.10;101690.00;;;;5020114;28;20645;-75
2023/06/16 17:41:49;;;;;;;3.60;0.50;;;26.90;72.10;29.60;101683.00;;;;5028891;28;20224;-75
2023/06/16 17:44:27;;;;;;;0.15;0.15;;;26.70;72.50;30.50;101671.00;;;;4988670;28;20778;-75
2023/06/16 17:47:22;;;;;;;0.10;0.10;;;26.70;73.00;30.30;101677.00;;;;5028374;28;20218;-75
2023/06/16 17:50:11;;;;;;;0.40;0.40;;;26.60;73.10;29.60;101652.00;;;;5027148;28;20190;-75
2023/06/16 17:53:01;;;;;;;0.40;0.40;;;26.60;73.40;30.80;101657.00;;;;5041409;28;20289;-75
2023/06/16 17:55:50;;;;;;;0.10;0.10;;;26.80;74.10;30.50;101657.00;;;;5032109;28;20321;-75
2023/06/16 17:58:39;;;;;;;0.22;0.22;;;26.90;74.00;29.60;101670.00;;;;5015599;28;20195;-74
2023/06/16 18:01:21;;;;;;;1.77;1.70;;;26.70;74.10;29.90;101674.00;;;;5031534;28;20560;-75
2023/06/16 18:04:10;;;;;;;2.38;1.40;;;26.60;74.70;29.10;101679.00;;;;5020357;28;20269;-75
2023/06/16 18:06:47;;;;;;;0.28;0.28;;;26.50;74.40;30.70;101605.00;;;;5039915;28;20207;-74
2023/06/16 18:09:30;;;;;;;0.32;0.25;;;26.50;75.00;31.10;101672.00;;;;5016738;28;20198;-74
2023/06/16 18:12:08;;;;;;;1.50;1.40;;;26.90;74.40;30.10;101663.00;;;;5032280;28;20748;-73
2023/06/16 18:14:45;;;;;;;0.52;0.52;;;26.80;73.50;30.40;101661.00;;;;5040908;28;20662;-73
2023/06/16 18:17:37;;;;;;;0.10;0.10;;;26.60;74.30;30.70;101666.00;;;;5031855;28;20190;-76
2023/06/16 18:20:06;;;;;;;0.10;0.10;;;26.70;74.00;30.40;101595.00;;;;5062013;28;20183;-73
2023/06/16 18:22:47;;;;;;;0.38;0.38;;;26.80;73.70;29.70;101664.00;;;;5032673;28;20241;-72
2023/06/16 18:25:27;;;;;;;0.10;0.10;;;26.50;74.00;30.60;101660.00;;;;5048476;28;20187;-73
2023/06/16 18:28:02;;;;;;;0.55;0.55;;;26.70;74.10;30.00;101659.00;;;;5044378;28;20328;-73
2023/06/16 18:30:37;;;;;;;0.10;0.10;;;26.60;73.80;31.10;101637.00;;;;5037195;28;21039;-73
2023/06/16 18:33:06;;;;;;;0.35;0.35;;;26.80;74.50;30.80;101658.00;;;;5035347;28;20301;-73
2023/06/16 18:35:35;;;;;;;0.75;0.50;;;26.90;74.60;29.90;101661.00;;;;5031587;28;20189;-75